Time;durP1;ratioP1;P1;durP2;ratioP2;P2;SDS_P1;SDS_P2;PMS_P1;PMS_P2;Temp;Humidity;BMP_temperature;BMP_pressure;BME280_temperature;BME280_humidity;BME280_pressure;Samples;Min_cycle;Max_cycle;Signal;HPM_P1;HPM_P2
2022/04/26 03:42:09;;;;;;;0.10;0.10;;;;;;;36.11;20.49;98232.69;5068988;28;20290;-66
2022/04/26 03:45:14;;;;;;;0.10;0.10;;;;;;;35.94;20.70;98232.44;5070045;28;20033;-63
2022/04/26 04:01:51;;;;;;;0.15;0.15;;;;;;;36.68;20.02;98228.50;5031582;28;20091;-65
2022/04/26 04:04:56;;;;;;;0.10;0.10;;;;;;;36.79;20.43;98216.94;5032054;28;20037;-64
2022/04/26 04:08:02;;;;;;;0.30;0.30;;;;;;;36.80;20.22;98218.56;5032292;28;20033;-63
2022/04/26 04:14:31;;;;;;;0.10;0.10;;;;;;;36.74;20.56;98218.19;5031791;28;20060;-65
2022/04/26 04:17:36;;;;;;;0.20;0.20;;;;;;;36.73;20.07;98213.69;5032211;28;20079;-63
2022/04/26 04:24:05;;;;;;;0.10;0.10;;;;;;;36.46;20.25;98205.03;5030886;28;20510;-65
2022/04/26 04:27:11;;;;;;;0.22;0.22;;;;;;;36.10;20.92;98202.50;5032055;28;20064;-64
2022/04/26 04:30:16;;;;;;;0.10;0.10;;;;;;;36.05;20.32;98198.03;5032071;28;20155;-64
2022/04/26 04:43:34;;;;;;;0.20;0.20;;;;;;;35.68;20.91;98201.59;5031765;28;20045;-65
2022/04/26 04:46:40;;;;;;;0.20;0.20;;;;;;;35.80;20.14;98198.25;5032057;28;20034;-62
2022/04/26 04:49:45;;;;;;;0.10;0.10;;;;;;;35.88;20.20;98193.28;5031777;28;20037;-63
2022/04/26 04:52:50;;;;;;;0.20;0.20;;;;;;;35.38;20.76;98194.44;5032159;28;20438;-62
2022/04/26 04:55:56;;;;;;;0.10;0.10;;;;;;;33.17;22.66;98205.25;5046179;28;20033;-65
2022/04/26 04:59:01;;;;;;;0.15;0.15;;;;;;;28.79;26.55;98190.16;5050223;28;20545;-63
2022/04/26 05:02:07;;;;;;;10.90;0.52;;;;;;;25.14;30.22;98206.31;5054720;28;20406;-64
2022/04/26 05:08:36;;;;;;;2.88;0.50;;;;;;;21.71;32.98;98193.72;5052821;28;20044;-66
2022/04/26 05:11:41;;;;;;;0.38;0.38;;;;;;;20.77;33.19;98202.06;5054048;28;20037;-63
2022/04/26 05:14:47;;;;;;;0.30;0.30;;;;;;;19.94;33.42;98201.13;5051538;28;20053;-63
2022/04/26 05:17:52;;;;;;;0.17;0.17;;;;;;;19.38;33.31;98205.06;5051540;28;20041;-62
2022/04/26 05:48:02;;;;;;;0.10;0.10;;;;;;;16.77;32.19;98203.56;5047766;28;20044;-63
2022/04/26 05:51:08;;;;;;;0.52;0.38;;;;;;;16.76;31.86;98207.44;5052304;28;20039;-64
2022/04/26 06:01:00;;;;;;;1.35;0.30;;;;;;;16.86;31.12;98202.91;5047151;28;20047;-62
2022/04/26 10:22:05;;;;;;;2.40;0.30;;;;;;;19.29;31.20;98043.50;5092306;27;20101;-63
2022/04/26 10:24:31;;;;;;;0.30;0.30;;;;;;;19.43;31.06;98038.75;5092009;28;20133;-61
2022/04/26 10:27:16;;;;;;;0.20;0.20;;;;;;;19.67;31.12;98032.09;5072983;28;20071;-63
2022/04/26 10:29:46;;;;;;;0.20;0.20;;;;;;;19.92;30.83;98022.31;5073285;28;20045;-62
2022/04/26 10:32:32;;;;;;;0.40;0.40;;;;;;;20.14;30.58;98006.75;5092847;28;20066;-67
2022/04/26 10:35:25;;;;;;;0.10;0.10;;;;;;;20.19;30.53;98020.56;5094401;28;20044;-64
2022/04/26 10:38:49;;;;;;;1.10;0.77;;;;;;;20.10;30.78;98030.81;5102479;28;20043;-63
2022/04/26 10:41:16;;;;;;;0.20;0.20;;;;;;;20.03;30.92;98027.66;5091351;28;20936;-62
2022/04/26 10:44:15;;;;;;;0.20;0.20;;;;;;;19.86;31.31;98011.63;5099187;28;20435;-65
2022/04/26 10:46:42;;;;;;;2.60;0.95;;;;;;;19.71;31.51;98024.75;5084990;28;20066;-62
2022/04/26 10:49:29;;;;;;;0.17;0.17;;;;;;;19.74;31.45;98026.06;5112208;28;20498;-63
2022/04/26 10:51:56;;;;;;;0.13;0.13;;;;;;;19.93;31.26;98017.56;5072497;28;20518;-63
2022/04/26 10:54:51;;;;;;;0.98;0.70;;;;;;;19.98;31.16;98017.47;5086506;28;20040;-62
2022/04/26 10:57:31;;;;;;;0.20;0.20;;;;;;;19.90;31.49;98019.03;5072354;28;20041;-63
2022/04/26 11:00:13;;;;;;;0.20;0.20;;;;;;;19.81;31.70;98028.47;5072380;28;20043;-60
2022/04/26 11:02:41;;;;;;;0.10;0.10;;;;;;;19.69;31.85;98015.06;5090970;28;20052;-63
2022/04/26 11:05:13;;;;;;;0.15;0.15;;;;;;;19.57;32.03;98012.84;5091994;28;20040;-63
2022/04/26 11:07:41;;;;;;;0.28;0.28;;;;;;;19.50;32.24;98010.47;5092364;28;20044;-63
2022/04/26 11:10:09;;;;;;;0.35;0.35;;;;;;;19.49;32.18;98013.56;5091932;28;20044;-63
2022/04/26 11:12:37;;;;;;;0.22;0.22;;;;;;;19.48;32.29;98023.88;5092505;28;20044;-64
2022/04/26 11:15:11;;;;;;;0.10;0.10;;;;;;;19.48;32.26;98001.63;5092512;28;20039;-65
2022/04/26 11:17:37;;;;;;;;;;;;;;;19.43;32.49;98010.06;5092327;28;20490;-63
2022/04/26 11:20:12;;;;;;;0.75;0.30;;;;;;;19.42;32.41;98014.00;5090488;28;19916;-63
2022/04/26 11:22:53;;;;;;;0.25;0.25;;;;;;;19.45;32.28;98013.38;5092105;28;20135;-64
2022/04/26 11:28:10;;;;;;;0.10;0.10;;;;;;;19.54;32.29;98005.91;5092505;28;20564;-64
2022/04/26 11:30:38;;;;;;;0.20;0.20;;;;;;;19.54;32.28;98005.91;5091998;28;20036;-67
2022/04/26 11:33:11;;;;;;;0.13;0.13;;;;;;;19.57;32.48;98010.84;5092003;28;20094;-64
2022/04/26 11:35:37;;;;;;;0.20;0.20;;;;;;;19.59;32.27;98016.94;5090721;28;20438;-62
2022/04/26 11:38:22;;;;;;;0.10;0.10;;;;;;;19.75;32.21;98002.66;5090873;28;20036;-65
2022/04/26 11:40:51;;;;;;;0.30;0.13;;;;;;;19.84;32.07;98006.34;5090959;28;20040;-63
2022/04/26 11:43:19;;;;;;;0.20;0.20;;;;;;;19.88;32.19;98009.34;5090851;28;20090;-64
2022/04/26 11:45:47;;;;;;;0.25;0.25;;;;;;;19.97;31.99;98013.03;5090532;28;20481;-61
2022/04/26 11:48:15;;;;;;;0.15;0.15;;;;;;;20.02;31.89;97996.16;5090849;28;20501;-65
2022/04/26 11:50:42;;;;;;;0.73;0.60;;;;;;;19.92;32.14;97997.25;5090948;28;20043;-64
2022/04/26 11:53:13;;;;;;;0.10;0.10;;;;;;;19.78;32.12;97999.28;5090648;28;20051;-62
2022/04/26 11:55:46;;;;;;;0.10;0.10;;;;;;;19.65;32.62;97989.78;5090518;28;20047;-65
2022/04/26 11:58:17;;;;;;;0.10;0.10;;;;;;;19.52;32.94;97994.28;5090368;28;20044;-63
2022/04/26 12:01:00;;;;;;;0.20;0.20;;;;;;;19.53;32.79;97992.31;5090332;28;20032;-63
2022/04/26 12:03:39;;;;;;;0.38;0.20;;;;;;;19.60;32.70;97987.94;5089960;28;20333;-63
2022/04/26 12:06:07;;;;;;;0.80;0.47;;;;;;;19.74;32.51;97975.94;5090603;28;20105;-63
2022/04/26 12:08:42;;;;;;;0.17;0.17;;;;;;;19.76;32.47;97984.81;5091108;28;20409;-64
2022/04/26 12:11:18;;;;;;;0.10;0.10;;;;;;;19.77;32.42;97969.72;5091353;28;20048;-64
2022/04/26 12:13:45;;;;;;;0.65;0.47;;;;;;;19.81;32.45;97978.31;5091437;28;20067;-64
2022/04/26 12:16:21;;;;;;;0.10;0.10;;;;;;;19.88;32.29;97975.94;5073170;28;20513;-62
2022/04/26 12:18:52;;;;;;;0.35;0.35;;;;;;;19.96;32.17;97966.78;5091439;28;20040;-66
2022/04/26 12:21:19;;;;;;;0.20;0.20;;;;;;;19.96;32.31;97972.34;5091753;28;20048;-63
2022/04/26 12:23:44;;;;;;;0.10;0.10;;;;;;;19.87;32.39;97958.38;5090670;28;20143;-64
2022/04/26 12:26:10;;;;;;;0.45;0.40;;;;;;;19.81;32.39;97962.44;5091059;28;20510;-64
2022/04/26 12:28:51;;;;;;;0.10;0.10;;;;;;;19.68;32.70;97954.94;5090886;28;20047;-64
2022/04/26 12:31:21;;;;;;;0.10;0.10;;;;;;;19.46;33.00;97941.81;5091347;28;20043;-64
2022/04/26 12:33:51;;;;;;;1.00;0.45;;;;;;;19.30;33.15;97950.53;5090685;28;20068;-67
2022/04/26 12:36:17;;;;;;;0.20;0.20;;;;;;;19.30;33.24;97958.88;5091362;28;20467;-63
2022/04/26 12:38:46;;;;;;;0.10;0.10;;;;;;;19.33;33.23;97949.91;5091147;28;20071;-63
2022/04/26 12:41:12;;;;;;;0.47;0.30;;;;;;;19.34;33.11;97956.28;5090916;28;20044;-64
2022/04/26 12:43:38;;;;;;;0.20;0.20;;;;;;;19.30;33.17;97960.81;5090686;28;20410;-62
2022/04/26 12:46:06;;;;;;;0.15;0.15;;;;;;;19.14;33.29;97952.84;5090037;28;20044;-64
2022/04/26 12:51:28;;;;;;;0.30;0.30;;;;;;;19.02;33.47;97944.19;5090761;28;20139;-63
2022/04/26 12:54:08;;;;;;;0.22;0.22;;;;;;;19.07;33.58;97938.53;5079899;28;20490;-63
2022/04/26 12:56:34;;;;;;;0.50;0.32;;;;;;;19.07;33.42;97935.75;5070242;28;20047;-62
2022/04/26 12:59:00;;;;;;;0.20;0.20;;;;;;;19.07;33.34;97927.41;5073469;28;20486;-63
2022/04/26 13:01:25;;;;;;;0.57;0.40;;;;;;;19.04;33.59;97926.06;5094341;28;20094;-68
2022/04/26 13:03:51;;;;;;;0.10;0.10;;;;;;;18.97;33.69;97919.28;5094130;28;20085;-66
2022/04/26 13:06:18;;;;;;;0.10;0.10;;;;;;;18.86;33.53;97908.38;5094817;28;20106;-64
2022/04/26 13:08:47;;;;;;;0.95;0.65;;;;;;;18.76;33.89;97905.78;5094337;28;20044;-64
2022/04/26 13:11:17;;;;;;;0.20;0.20;;;;;;;18.64;34.21;97908.25;5094224;28;20490;-63
2022/04/26 13:13:46;;;;;;;0.68;0.65;;;;;;;18.51;34.38;97910.72;5094429;28;20040;-63
2022/04/26 13:16:12;;;;;;;0.65;0.65;;;;;;;18.44;34.48;97901.97;5094412;28;20036;-62
2022/04/26 13:18:38;;;;;;;0.25;0.25;;;;;;;18.34;34.64;97904.97;5094149;28;20082;-64
2022/04/26 13:21:05;;;;;;;0.43;0.43;;;;;;;18.21;34.63;97921.31;5094269;28;20036;-65
2022/04/26 13:23:34;;;;;;;0.40;0.40;;;;;;;18.10;34.80;97908.75;5094028;28;20093;-64
2022/04/26 13:26:02;;;;;;;0.10;0.10;;;;;;;18.01;34.97;97905.84;5093930;28;20523;-64
2022/04/26 13:28:28;;;;;;;0.50;0.30;;;;;;;17.91;34.99;97905.22;5094368;28;20097;-65
2022/04/26 13:30:54;;;;;;;0.30;0.30;;;;;;;17.80;35.29;97905.38;5094392;28;20044;-63
2022/04/26 13:33:21;;;;;;;0.20;0.20;;;;;;;17.76;35.34;97911.84;5093784;28;20094;-62
2022/04/26 13:35:47;;;;;;;0.10;0.10;;;;;;;17.72;35.31;97908.84;5092994;28;20036;-65
2022/04/26 13:38:15;;;;;;;0.10;0.10;;;;;;;17.68;35.43;97902.25;5083919;28;20044;-66
2022/04/26 13:40:41;;;;;;;0.15;0.15;;;;;;;17.69;35.32;97901.94;5072176;28;20032;-70
2022/04/26 13:43:08;;;;;;;0.25;0.25;;;;;;;17.72;35.39;97891.38;5083359;28;20039;-64
2022/04/26 13:45:35;;;;;;;0.20;0.20;;;;;;;17.74;35.19;97905.75;5090111;28;20414;-65
2022/04/26 13:48:08;;;;;;;0.15;0.10;;;;;;;17.73;35.15;97888.28;5087692;28;20039;-64
2022/04/26 13:50:34;;;;;;;0.10;0.10;;;;;;;17.72;35.41;97881.06;5093342;28;20036;-66
2022/04/26 13:52:59;;;;;;;0.20;0.20;;;;;;;17.76;35.13;97881.31;5093422;28;20040;-70
2022/04/26 13:55:26;;;;;;;0.43;0.43;;;;;;;17.81;35.03;97883.97;5093032;28;20487;-67
2022/04/26 13:57:56;;;;;;;0.20;0.20;;;;;;;17.85;34.82;97871.94;5093449;28;20483;-66
2022/04/26 14:00:22;;;;;;;0.10;0.10;;;;;;;17.85;35.09;97869.16;5093264;28;20379;-67
2022/04/26 14:02:48;;;;;;;0.10;0.10;;;;;;;17.85;35.08;97874.72;5092894;28;20036;-66
2022/04/26 14:05:16;;;;;;;0.25;0.25;;;;;;;17.81;35.17;97872.88;5092171;28;20505;-68
2022/04/26 14:07:42;;;;;;;0.20;0.20;;;;;;;17.75;35.44;97874.91;5093229;28;20170;-66
2022/04/26 14:10:08;;;;;;;0.10;0.10;;;;;;;17.69;35.50;97862.25;5092270;28;20043;-67
2022/04/26 14:12:35;;;;;;;0.15;0.15;;;;;;;17.63;35.54;97869.03;5093059;28;20035;-68
2022/04/26 14:23:13;;;;;;;0.20;0.20;;;;;;;17.38;35.66;97864.75;5087634;28;20102;-69
2022/04/26 14:25:39;;;;;;;1.35;0.80;;;;;;;17.36;35.75;97867.81;5085592;28;20040;-69
2022/04/26 14:28:05;;;;;;;0.15;0.15;;;;;;;17.33;35.88;97865.66;5084431;28;20419;-67
2022/04/26 14:30:31;;;;;;;0.43;0.43;;;;;;;17.33;35.96;97860.09;5088011;28;20444;-67
2022/04/26 14:32:57;;;;;;;0.20;0.20;;;;;;;17.33;35.78;97869.25;5084564;28;20036;-69
2022/04/26 14:35:23;;;;;;;0.28;0.28;;;;;;;17.32;35.90;97861.22;5086216;28;20040;-67
2022/04/26 14:37:51;;;;;;;0.65;0.32;;;;;;;17.27;36.04;97858.50;5085399;28;20044;-69
2022/04/26 14:40:57;;;;;;;0.20;0.20;;;;;;;17.27;36.05;97853.81;5086981;28;20494;-63
2022/04/26 14:44:02;;;;;;;0.20;0.20;;;;;;;17.26;35.74;97851.34;5092425;28;20130;-64
2022/04/26 14:46:28;;;;;;;0.30;0.30;;;;;;;17.21;36.06;97852.25;5088397;28;20142;-62
2022/04/26 14:48:54;;;;;;;0.20;0.20;;;;;;;17.24;35.91;97854.41;5091523;28;20097;-62
2022/04/26 14:51:20;;;;;;;0.43;0.43;;;;;;;17.25;35.89;97849.69;5092333;28;20414;-62
2022/04/26 14:53:45;;;;;;;0.30;0.30;;;;;;;17.24;35.96;97859.13;5093409;28;20448;-63
2022/04/26 14:56:11;;;;;;;1.27;0.88;;;;;;;17.19;36.02;97850.91;5093524;28;20105;-62
2022/04/26 14:58:37;;;;;;;0.40;0.40;;;;;;;17.10;36.25;97854.34;5092551;28;20481;-67
2022/04/26 15:01:03;;;;;;;0.20;0.20;;;;;;;16.99;36.34;97852.88;5086691;28;20052;-64
2022/04/26 15:03:30;;;;;;;0.77;0.77;;;;;;;16.88;36.57;97856.91;5092654;28;20047;-63
2022/04/26 15:05:59;;;;;;;0.38;0.28;;;;;;;16.75;36.85;97855.66;5093441;28;20093;-61
2022/04/26 15:11:10;;;;;;;0.43;0.43;;;;;;;16.53;37.09;97857.06;5092507;28;20131;-65
2022/04/26 15:16:38;;;;;;;0.30;0.30;;;;;;;16.50;37.02;97863.19;5091253;28;20564;-61
2022/04/26 15:19:11;;;;;;;0.43;0.43;;;;;;;16.52;36.94;97849.88;5091940;28;20452;-63
2022/04/26 15:21:38;;;;;;;0.20;0.20;;;;;;;16.52;37.11;97843.50;5088606;28;20051;-61
2022/04/26 15:24:05;;;;;;;0.40;0.40;;;;;;;16.54;37.20;97839.31;5070864;28;20056;-63
2022/04/26 15:26:31;;;;;;;0.68;0.68;;;;;;;16.58;37.01;97850.66;5071393;28;20084;-63
2022/04/26 15:28:58;;;;;;;0.38;0.38;;;;;;;16.61;36.92;97853.63;5053612;28;20044;-62
2022/04/26 15:31:24;;;;;;;0.40;0.40;;;;;;;16.62;36.79;97848.91;5071921;28;20533;-64
2022/04/26 15:33:51;;;;;;;0.30;0.30;;;;;;;16.63;36.90;97850.56;5070825;28;20040;-62
2022/04/26 15:36:47;;;;;;;0.30;0.30;;;;;;;16.63;36.92;97850.56;5063274;28;20052;-62
2022/04/26 15:39:12;;;;;;;0.38;0.30;;;;;;;16.61;36.93;97866.69;5049578;28;20055;-63
2022/04/26 15:41:38;;;;;;;0.55;0.50;;;;;;;16.60;37.02;97856.72;5062749;28;20045;-61
2022/04/26 15:44:05;;;;;;;0.73;0.40;;;;;;;16.59;37.15;97860.59;5055653;28;20060;-64
2022/04/26 15:46:31;;;;;;;0.55;0.40;;;;;;;16.54;37.16;97857.91;5049669;28;20033;-64
2022/04/26 15:48:58;;;;;;;0.65;0.40;;;;;;;16.54;37.14;97857.91;5059648;28;20142;-63
2022/04/26 15:51:25;;;;;;;0.50;0.47;;;;;;;16.54;37.08;97855.13;5069440;28;20439;-62
2022/04/26 15:53:51;;;;;;;0.30;0.30;;;;;;;16.52;37.26;97854.59;5068242;28;20041;-62
2022/04/26 15:56:16;;;;;;;1.17;0.50;;;;;;;16.50;37.20;97849.34;5070876;28;20128;-60
2022/04/26 15:58:42;;;;;;;0.50;0.50;;;;;;;16.49;37.12;97849.66;5070554;28;20529;-62
2022/04/26 16:01:09;;;;;;;0.90;0.52;;;;;;;16.46;37.29;97846.34;5070301;28;20486;-63
2022/04/26 16:03:35;;;;;;;0.20;0.20;;;;;;;16.45;37.61;97846.66;5070579;28;20045;-66
2022/04/26 16:06:01;;;;;;;0.57;0.57;;;;;;;16.42;37.14;97850.84;5070800;28;20052;-62
2022/04/26 16:22:06;;;;;;;1.15;0.52;;;;;;;16.27;37.48;97828.88;5074722;28;20078;-61
2022/04/26 16:24:38;;;;;;;0.30;0.30;;;;;;;16.23;37.91;97825.06;5090695;28;20131;-65
2022/04/26 16:27:06;;;;;;;0.85;0.85;;;;;;;16.18;37.75;97822.34;5091060;28;20047;-64
2022/04/26 16:29:31;;;;;;;0.47;0.47;;;;;;;16.15;38.04;97828.47;5084534;28;20043;-63
2022/04/26 16:31:57;;;;;;;0.57;0.30;;;;;;;16.10;37.95;97821.88;5052336;28;20037;-63
2022/04/26 16:34:23;;;;;;;0.30;0.30;;;;;;;16.08;37.79;97818.56;5069589;28;20465;-61
2022/04/26 16:36:48;;;;;;;0.20;0.20;;;;;;;16.05;38.05;97821.94;5070483;28;20044;-64
2022/04/26 16:39:14;;;;;;;2.00;0.43;;;;;;;16.02;37.95;97811.47;5072970;28;20078;-61
2022/04/26 16:41:40;;;;;;;0.30;0.30;;;;;;;16.01;37.89;97817.28;5087465;28;20052;-63
2022/04/26 16:44:07;;;;;;;0.50;0.50;;;;;;;15.98;38.04;97815.94;5071914;28;20041;-61
2022/04/26 16:46:33;;;;;;;0.50;0.50;;;;;;;15.96;38.18;97815.41;5071388;28;20052;-64
2022/04/26 16:49:01;;;;;;;0.98;0.75;;;;;;;15.96;38.00;97809.88;5071303;28;20050;-62
2022/04/26 16:51:30;;;;;;;0.28;0.28;;;;;;;15.93;38.05;97810.47;5071601;28;20067;-65
2022/04/26 16:53:56;;;;;;;0.22;0.22;;;;;;;15.92;38.35;97806.03;5054036;28;20105;-62
2022/04/26 16:56:22;;;;;;;0.20;0.20;;;;;;;15.91;38.18;97799.66;5071496;28;20037;-61
2022/04/26 16:58:47;;;;;;;0.20;0.20;;;;;;;15.89;38.21;97809.41;5070956;28;20067;-61
2022/04/26 17:01:13;;;;;;;0.32;0.30;;;;;;;15.85;38.20;97800.03;5071138;28;20075;-63
2022/04/26 17:03:57;;;;;;;2.63;0.55;;;;;;;15.80;38.48;97795.38;5070238;28;20037;-60
2022/04/26 17:06:23;;;;;;;0.30;0.30;;;;;;;15.75;38.56;97798.16;5070584;28;20495;-61
2022/04/26 17:08:49;;;;;;;0.30;0.30;;;;;;;15.72;38.61;97791.28;5070869;28;20098;-62
2022/04/26 17:13:59;;;;;;;2.67;0.80;;;;;;;15.60;38.69;97801.91;5069477;28;20139;-60
2022/04/26 17:16:25;;;;;;;0.20;0.20;;;;;;;15.58;38.88;97818.00;5070099;28;20571;-61
2022/04/26 17:18:51;;;;;;;0.50;0.50;;;;;;;15.59;38.83;97814.09;5052936;28;20037;-61
2022/04/26 17:21:17;;;;;;;0.38;0.38;;;;;;;15.62;38.60;97821.84;5070875;28;20124;-62
2022/04/26 17:23:42;;;;;;;0.30;0.30;;;;;;;15.62;38.63;97804.38;5070338;28;20051;-61
2022/04/26 17:26:08;;;;;;;0.32;0.30;;;;;;;15.64;38.86;97802.97;5070613;28;20417;-61
2022/04/26 17:28:34;;;;;;;0.88;0.35;;;;;;;15.65;38.51;97787.19;5070322;28;20045;-63
2022/04/26 17:30:59;;;;;;;0.20;0.20;;;;;;;15.67;38.78;97777.50;5070731;28;20040;-60
2022/04/26 17:33:26;;;;;;;0.47;0.43;;;;;;;15.68;38.76;97790.22;5070450;28;20410;-62
2022/04/26 17:35:52;;;;;;;0.20;0.20;;;;;;;15.68;38.97;97789.38;5071357;28;20040;-63
2022/04/26 17:38:17;;;;;;;0.50;0.50;;;;;;;15.68;38.98;97783.84;5071841;28;20052;-66
2022/04/26 17:40:43;;;;;;;0.25;0.25;;;;;;;15.67;39.09;97790.50;5071487;28;20513;-64
2022/04/26 17:43:09;;;;;;;0.30;0.30;;;;;;;15.65;38.81;97785.28;5071748;28;20044;-65
2022/04/26 17:45:37;;;;;;;0.28;0.28;;;;;;;15.65;39.22;97782.50;5074638;28;20052;-66
2022/04/26 17:48:03;;;;;;;0.35;0.35;;;;;;;15.66;39.15;97783.31;5075093;28;20406;-64
2022/04/26 17:50:28;;;;;;;0.40;0.40;;;;;;;15.65;39.21;97787.19;5074905;28;20039;-65
2022/04/26 17:58:22;;;;;;;0.30;0.30;;;;;;;15.59;39.14;97781.72;5074776;28;20505;-65
2022/04/26 18:00:48;;;;;;;0.30;0.30;;;;;;;15.58;39.53;97776.50;5074713;28;20041;-62
2022/04/26 18:03:13;;;;;;;0.20;0.20;;;;;;;15.54;39.63;97786.50;5056816;28;20492;-63
2022/04/26 18:05:40;;;;;;;0.45;0.45;;;;;;;15.50;39.79;97779.88;5074402;28;20106;-62
2022/04/26 18:08:06;;;;;;;0.30;0.30;;;;;;;15.41;39.91;97776.94;5074660;28;20067;-66
2022/04/26 18:10:33;;;;;;;0.40;0.40;;;;;;;15.32;39.92;97776.75;5074556;28;20070;-63
2022/04/26 18:12:59;;;;;;;0.40;0.40;;;;;;;15.24;39.85;97767.13;5074737;28;20044;-62
2022/04/26 18:15:25;;;;;;;1.20;1.02;;;;;;;15.16;40.06;97772.47;5074040;28;20617;-63
2022/04/26 18:17:51;;;;;;;0.77;0.77;;;;;;;15.10;40.21;97768.91;5074118;28;20123;-64
2022/04/26 18:20:19;;;;;;;0.35;0.35;;;;;;;15.01;40.45;97765.13;5074347;28;20051;-62
2022/04/26 18:22:45;;;;;;;0.43;0.43;;;;;;;14.94;40.49;97761.88;5074015;28;20139;-63
2022/04/26 18:25:11;;;;;;;0.73;0.63;;;;;;;14.86;40.62;97760.56;5074420;28;20472;-63
2022/04/26 18:27:36;;;;;;;0.70;0.70;;;;;;;14.80;40.92;97756.19;5073970;28;20032;-62
2022/04/26 18:30:03;;;;;;;0.35;0.35;;;;;;;14.73;40.71;97752.94;5074116;28;20459;-63
2022/04/26 18:32:31;;;;;;;1.50;0.38;;;;;;;14.67;40.84;97763.19;5074334;28;20123;-63
2022/04/26 18:34:57;;;;;;;0.20;0.20;;;;;;;14.64;40.88;97758.25;5073568;28;20087;-63
2022/04/26 18:37:22;;;;;;;0.30;0.30;;;;;;;14.64;40.82;97744.44;5074303;28;20052;-63
2022/04/26 18:39:48;;;;;;;0.30;0.30;;;;;;;14.59;40.92;97734.22;5074049;28;20558;-62
2022/04/26 18:42:14;;;;;;;0.10;0.10;;;;;;;14.61;41.24;97739.47;5073843;28;20075;-61
2022/04/26 18:44:40;;;;;;;1.17;1.05;;;;;;;14.57;41.11;97749.44;5073810;28;20071;-62
2022/04/26 18:47:06;;;;;;;0.40;0.40;;;;;;;14.50;41.26;97738.69;5055844;28;20036;-64
2022/04/26 18:49:33;;;;;;;0.20;0.20;;;;;;;14.44;41.45;97743.44;5073939;28;20071;-63
2022/04/26 18:51:59;;;;;;;0.35;0.35;;;;;;;14.38;41.54;97739.03;5074086;28;20040;-63
2022/04/26 18:54:25;;;;;;;0.55;0.55;;;;;;;14.31;41.44;97742.13;5073951;28;20045;-63
2022/04/26 18:56:51;;;;;;;0.38;0.38;;;;;;;14.25;41.69;97751.56;5072831;28;20503;-62
2022/04/26 18:59:20;;;;;;;0.98;0.40;;;;;;;14.18;41.72;97740.81;5073438;28;20052;-63
2022/04/26 19:01:46;;;;;;;0.45;0.35;;;;;;;14.14;41.93;97738.91;5073644;28;20040;-61
2022/04/26 19:04:13;;;;;;;0.57;0.57;;;;;;;14.11;41.76;97739.50;5072660;28;20051;-62
2022/04/26 19:06:38;;;;;;;0.20;0.20;;;;;;;14.08;41.88;97729.03;5073388;28;20037;-62
2022/04/26 19:09:04;;;;;;;0.45;0.45;;;;;;;14.05;42.27;97724.06;5073474;28;20047;-61
2022/04/26 19:14:14;;;;;;;0.20;0.20;;;;;;;13.99;42.31;97732.38;5073130;28;20090;-62
2022/04/26 19:16:41;;;;;;;0.65;0.40;;;;;;;13.96;42.44;97726.59;5073134;28;20045;-63
2022/04/26 19:19:06;;;;;;;0.20;0.20;;;;;;;13.92;42.46;97720.00;5072914;28;20087;-63
2022/04/26 19:21:32;;;;;;;0.22;0.22;;;;;;;13.89;42.25;97723.31;5072815;28;20082;-63
2022/04/26 19:23:58;;;;;;;0.30;0.30;;;;;;;13.87;42.58;97712.56;5072552;28;20044;-64
2022/04/26 19:26:23;;;;;;;0.47;0.30;;;;;;;13.84;42.46;97708.44;5072781;28;20043;-60
2022/04/26 19:28:49;;;;;;;0.20;0.20;;;;;;;13.86;42.36;97710.91;5072919;28;20407;-64
2022/04/26 19:31:16;;;;;;;0.32;0.32;;;;;;;13.83;42.49;97705.97;5073029;28;20526;-63
2022/04/26 19:33:42;;;;;;;0.40;0.40;;;;;;;13.82;42.59;97696.03;5072648;28;20041;-65
2022/04/26 19:36:09;;;;;;;0.10;0.10;;;;;;;13.82;42.70;97701.53;5072511;28;20419;-62
2022/04/26 19:38:35;;;;;;;0.17;0.17;;;;;;;13.82;42.68;97707.91;5072612;28;20453;-64
2022/04/26 19:41:04;;;;;;;3.10;0.30;;;;;;;13.84;42.65;97696.59;5072738;28;20066;-63
2022/04/26 19:43:31;;;;;;;0.30;0.30;;;;;;;13.83;42.88;97698.50;5073157;28;20049;-62
2022/04/26 19:45:57;;;;;;;1.30;0.80;;;;;;;13.85;43.04;97698.22;5072677;28;20102;-64
2022/04/26 19:48:22;;;;;;;2.72;0.57;;;;;;;13.86;42.97;97699.88;5072399;28;20048;-63
2022/04/26 19:53:32;;;;;;;0.20;0.20;;;;;;;13.88;43.22;97696.81;5072831;28;20405;-61
2022/04/26 19:55:58;;;;;;;0.20;0.20;;;;;;;13.87;43.19;97684.97;5072638;28;20040;-63
2022/04/26 19:58:23;;;;;;;0.40;0.38;;;;;;;13.88;43.02;97683.84;5072413;28;20123;-61
2022/04/26 20:00:50;;;;;;;0.20;0.20;;;;;;;13.93;43.35;97689.34;5072633;28;20403;-64
2022/04/26 20:03:16;;;;;;;0.38;0.38;;;;;;;13.96;43.00;97676.94;5071979;28;20036;-63
2022/04/26 20:05:42;;;;;;;0.10;0.10;;;;;;;13.98;43.11;97685.75;5071954;28;20078;-63
2022/04/26 20:08:08;;;;;;;1.55;0.85;;;;;;;13.98;43.04;97681.03;5071295;28;20032;-62
2022/04/26 20:10:35;;;;;;;0.60;0.30;;;;;;;13.98;43.25;97670.00;5072521;28;20040;-63
2022/04/26 20:13:00;;;;;;;1.02;0.93;;;;;;;13.98;43.35;97669.19;5072377;28;20047;-62
2022/04/26 20:15:26;;;;;;;0.17;0.17;;;;;;;13.99;43.29;97670.84;5072115;28;20111;-64
2022/04/26 20:17:52;;;;;;;0.20;0.20;;;;;;;14.00;43.56;97673.31;5071897;28;20162;-63
2022/04/26 20:20:18;;;;;;;0.10;0.10;;;;;;;14.04;43.57;97658.94;5072277;28;20506;-62
2022/04/26 20:22:44;;;;;;;0.30;0.30;;;;;;;14.06;43.37;97664.97;5071926;28;20049;-63
2022/04/26 20:25:10;;;;;;;0.98;0.90;;;;;;;14.10;43.23;97666.06;5072019;28;20047;-62
2022/04/26 20:30:23;;;;;;;0.40;0.40;;;;;;;14.15;43.40;97669.63;5072265;28;20047;-62
2022/04/26 20:32:49;;;;;;;0.10;0.10;;;;;;;14.18;43.37;97669.03;5071710;28;20040;-62
2022/04/26 20:35:14;;;;;;;0.20;0.20;;;;;;;14.22;43.31;97661.00;5071546;28;20036;-63
2022/04/26 20:37:40;;;;;;;0.38;0.38;;;;;;;14.28;43.31;97664.56;5072141;28;20055;-61
2022/04/26 20:40:06;;;;;;;0.10;0.10;;;;;;;14.30;43.29;97660.41;5072034;28;20033;-61
2022/04/26 20:42:32;;;;;;;0.20;0.20;;;;;;;14.31;43.38;97662.06;5071971;28;20102;-63
2022/04/26 20:45:00;;;;;;;0.28;0.28;;;;;;;14.33;43.42;97665.34;5071697;28;20528;-63
2022/04/26 20:47:26;;;;;;;0.35;0.35;;;;;;;14.33;43.70;97650.72;5071820;28;20042;-63
2022/04/26 20:49:53;;;;;;;0.50;0.40;;;;;;;14.35;43.74;97656.78;5071770;28;20123;-62
2022/04/26 20:52:19;;;;;;;0.15;0.15;;;;;;;14.35;43.43;97649.34;5071654;28;20090;-63
2022/04/26 20:54:45;;;;;;;0.10;0.10;;;;;;;14.36;43.49;97661.19;5053833;28;20490;-63
2022/04/26 20:57:11;;;;;;;0.40;0.40;;;;;;;14.35;43.55;97654.00;5071781;28;20115;-62
2022/04/26 20:59:36;;;;;;;0.38;0.38;;;;;;;14.32;43.93;97652.66;5071726;28;20040;-63
2022/04/26 21:02:02;;;;;;;0.28;0.28;;;;;;;14.31;43.89;97651.00;5071893;28;20068;-63
2022/04/26 21:04:28;;;;;;;0.73;0.40;;;;;;;14.28;43.97;97654.34;5070901;28;20041;-62
2022/04/26 21:06:54;;;;;;;2.00;0.60;;;;;;;14.29;43.76;97661.50;5071621;28;20040;-62
2022/04/26 21:09:19;;;;;;;0.20;0.20;;;;;;;14.30;43.87;97656.84;5071859;28;20470;-62
2022/04/26 21:11:45;;;;;;;0.32;0.25;;;;;;;14.30;44.18;97645.78;5071568;28;20049;-65
2022/04/26 21:14:13;;;;;;;0.10;0.10;;;;;;;14.31;44.11;97655.69;5071366;28;20064;-63
2022/04/26 21:16:39;;;;;;;0.20;0.20;;;;;;;14.31;43.95;97650.19;5071493;28;20041;-62
2022/04/26 21:19:05;;;;;;;0.65;0.65;;;;;;;14.30;44.02;97649.34;5072332;28;20127;-60
2022/04/26 21:21:31;;;;;;;0.32;0.32;;;;;;;14.29;43.85;97647.69;5075312;28;20072;-62
2022/04/26 21:23:57;;;;;;;0.20;0.20;;;;;;;14.31;44.26;97652.94;5075150;28;20056;-62
2022/04/26 21:26:22;;;;;;;0.10;0.10;;;;;;;14.30;44.08;97643.03;5075489;28;20040;-62
2022/04/26 21:28:48;;;;;;;0.10;0.10;;;;;;;14.30;44.41;97637.50;5075101;28;20472;-63
2022/04/26 21:31:14;;;;;;;0.13;0.13;;;;;;;14.30;43.99;97632.78;5075297;28;20053;-62
2022/04/26 21:33:41;;;;;;;1.20;0.30;;;;;;;14.31;44.18;97633.59;5074876;28;20048;-62
2022/04/26 21:36:07;;;;;;;0.20;0.20;;;;;;;14.30;44.22;97627.28;5075109;28;20071;-62
2022/04/26 21:38:36;;;;;;;0.20;0.20;;;;;;;14.29;44.41;97627.56;5074957;28;20051;-65
2022/04/26 21:41:06;;;;;;;0.20;0.20;;;;;;;14.28;44.32;97635.03;5075179;28;20044;-63
2022/04/26 21:43:32;;;;;;;0.10;0.10;;;;;;;14.26;44.24;97631.72;5074889;28;20036;-63
2022/04/26 21:46:04;;;;;;;0.20;0.20;;;;;;;14.24;44.30;97619.34;5074661;28;20419;-62
2022/04/26 21:48:32;;;;;;;0.55;0.22;;;;;;;14.24;44.55;97622.09;5074944;28;20102;-63
2022/04/26 21:53:42;;;;;;;0.20;0.20;;;;;;;14.24;44.64;97624.84;5075280;28;20047;-62